Terminal Aerodrome Forecast
Issued by NWS Charleston, WV

Current Version | Previous Version | Text Only | Print | Product List | Glossary Off
Versions: 1 2 3 4 5 6 7 8 9 10 11 12 13 14 15 16 17 18 19 20 21 22 23

000
FTUS41 KRLX 150200 AAA
TAFBKW
TAF AMD
KBKW 150259Z 1503/1524 VRB03KT 1SM BR OVC002
     FM151100 00000KT 3SM BR OVC008
     FM151200 VRB03KT 6SM BR BKN010
     FM151300 13004KT P6SM SCT020=

USA.gov is the U.S. government's official web portal to all federal, state and local government web resources and services.